Tikaboo Peak, Nevada Weather observations

Data are for 10 minute period ending at time listed.
 Day   Time   Solar   Ave.   Ave.  Ave.  Vector  Max.   Baro.   Total    
  of    of     Rad.   Air    Rel.  Wind   Wind   Wind  Press.  Precip.   
Year   Day            Temp.  Hum.  Speed  Dir.   Gust                    
2019   (PST)  Kw/m2    F      %     mph   deg.    mph    mb.     in.     
-------------------------------------------------------------------------
  50    7:30   0.24    6.2    80   27.0   171    34.7   753.5    0.00 
  50    7:40   0.27    6.3    80   24.0   166    33.5   753.6    0.00 
  50    7:50   0.31    6.3    80   25.2   170    34.1   753.9    0.00 
  50    8:00   0.34    6.4    79   25.4   169    33.0   754.1    0.00 
  50    8:10   0.38    6.8    77   20.0   165    29.7   754.2    0.00 
  50    8:20   0.41    7.2    75   20.7   166    29.2   754.2    0.00 
  50    8:30   0.45    7.5    74   18.5   166    31.8   754.2    0.00 
  50    8:40   0.48    7.6    73   18.9   163    30.4   754.3    0.00 
  50    8:50   0.51    8.1    73   16.0   165    27.1   754.4    0.00 
  50    9:00   0.54    8.6    72   15.0   169    25.8   754.6    0.00 
  50    9:10   0.57    9.3    68   17.0   169    28.9   754.6    0.00 
  50    9:20   0.59    8.5    68   23.3   162    35.2   754.3    0.00 
  50    9:30   0.62    8.2    67   27.2   160    37.5   754.3    0.00 
  50    9:40   0.64    8.4    64   23.2   157    37.3   754.4    0.00 
  50    9:50   0.66    9.1    62   19.9   154    32.4   754.4    0.00 
  50   10:00   0.68    9.9    63   16.0   156    29.7   754.6    0.00 
  50   10:10   0.70   10.6    60   12.4   162    26.7   754.8    0.00 
  50   10:20   0.72   10.3    61   15.2   143    27.3   754.8    0.00 
  50   10:30   0.73   11.2    62   11.1   135    21.7   754.8    0.00 
  50   10:40   0.74   14.1    59    5.0    98    14.4   754.9    0.00 
  50   10:50   0.75   16.2    55    5.8   117    13.4   755.1    0.00 
  50   11:00   0.76   14.1    57   10.3   139    18.3   755.1    0.00 
  50   11:10   0.77   16.2    56    5.8   116    13.5   755.1    0.00 
  50   11:20   0.78   16.4    53    6.8   127    14.1   755.1    0.00 
  50   11:30   0.78   16.2    54    6.2   122    14.4   755.1    0.00 
  50   11:40   0.78   16.9    53    6.7   124    14.9   755.0    0.00 
  50   11:50   0.78   18.2    51    3.4   116    10.2   755.1    0.00 
  50   12:00   0.78   18.3    50    6.2   106    13.5   754.9    0.00 
  50   12:10   0.77   18.2    50    5.7   128    13.1   754.8    0.00 
  50   12:20   0.76   18.0    53    4.9   122     9.5   754.6    0.00 
  50   12:30   0.76   18.8    51    3.9   134    11.2   754.5    0.00 
  50   12:40   0.74   20.4    52    3.4    88    11.8   754.4    0.01 
  50   12:50   0.71   20.8    51    1.9    55     6.1   754.5    0.00 
  50   13:00   0.69   19.9    51    3.2   104    11.8   754.4    0.00 
  50   13:10   0.68   20.8    52    4.1   114    14.0   754.4    0.00 
  50   13:20   0.66   21.7    51    2.4    95    12.3   754.4    0.00 
  50   13:30   0.63   20.6    53    3.8    89    11.7   754.3    0.00 
  50   13:40   0.61   20.9    52    2.5   101    10.4   754.2    0.00 
  50   13:50   0.58   21.4    50    1.1    54    10.8   754.2    0.00 
  50   14:00   0.56   21.0    53    1.9   112    11.0   754.2    0.00 
  50   14:10   0.53   21.9    53    2.4   106    10.4   754.2    0.00 
  50   14:20   0.51   22.0    51    1.4    24     5.4   754.1    0.00 
  50   14:30   0.48   21.0    52    1.6   123     7.7   754.1    0.00 
  50   14:40   0.45   20.7    54    1.5    38     7.2   754.1    0.00 
  50   14:50   0.42   19.8    54    1.5   121     9.9   753.9    0.00 
  50   15:00   0.39   19.5    56    1.4    84     7.5   753.9    0.00 
  50   15:10   0.36   18.4    56    1.7   108    12.9   753.9    0.00 
  50   15:20   0.31   18.3    58    1.6    17     7.1   753.8    0.00 
  50   15:30   0.30   17.6    57    1.7   119    11.0   753.7    0.00 
  50   15:40   0.27   17.0    61    1.6     8     6.2   753.7    0.00 
  50   15:50   0.24   17.0    60    1.7    17     7.5   753.7    0.00 
  50   16:00   0.22   17.3    58    2.1    61    11.3   753.8    0.00 
  50   16:10   0.16   17.4    58    1.4    58     7.7   753.9    0.00 
  50   16:20   0.15   17.9    56    1.4    66     6.2   753.8    0.00 
  50   16:30   0.12   17.1    57    1.8    49    10.4   753.6    0.00 
  50   16:40   0.07   16.9    55    2.1    89    13.2   753.5    0.00 
  50   16:50   0.03   14.6    60    1.6   101     7.4   753.5    0.00 
  50   17:00   0.02   13.7    63    3.3   101    15.9   753.6    0.00 
  50   17:10   0.01   13.4    63    3.3   100    15.0   753.7    0.00 
  50   17:20   0.02   13.6    66    3.6    75    13.1   753.7    0.00 
  50   17:30   0.01   14.0    66    7.0    92    22.1   753.6    0.00 
  50   17:40   0.00   13.8    63    4.4    92    17.0   753.7    0.00 
  50   17:50   0.00   13.4    63    4.7    97    20.9   753.8    0.00 
  50   18:00   0.00   13.4    64    3.8   118    20.0   753.8    0.00 
  50   18:10   0.00   13.5    65    4.4   117    30.6   753.9    0.00 
  50   18:20   0.00   13.7    65    3.7   129    19.2   753.9    0.00 
  50   18:30   0.00   13.9    65    4.4   114    19.5   753.9    0.00 
  50   18:40   0.00   14.0    66    2.4   139     8.8   753.9    0.00 
  50   18:50   0.00   14.2    67    3.8    94    13.7   753.9    0.00 
  50   19:00   0.00   14.5    67    4.6   105    15.1   754.0    0.00 
  50   19:10   0.00   14.7    67    5.3    98    13.2   754.0    0.00 
  50   19:20   0.00   14.5    67    8.5   105    14.0   754.0    0.00 
  50   19:30   0.00   14.6    68    8.9    85    12.6   754.1    0.00 
  50   19:40   0.00   14.5    67    2.8    91    10.7   754.1    0.00 
  50   19:50   0.00   13.7    68    1.8    98     7.7   754.1    0.00 
  50   20:00   0.00   13.2    70    4.3    92    11.9   754.1    0.00 
  50   20:10   0.00   13.4    71    9.9    90    14.9   754.0    0.00 
  50   20:20   0.00   14.1    69   13.8    81    16.4   753.9    0.00 
  50   20:30   0.00   14.4    68   15.6    69    17.8   753.7    0.00 
  50   20:40   0.00   14.3    68   14.0    69    16.7   753.7    0.00 
  50   20:50   0.00   14.7    68   15.4    71    17.5   753.6    0.00 
  50   21:00   0.00   15.0    67   15.7    70    17.8   753.6    0.00 
  50   21:10   0.00   15.5    67   17.0    68    20.2   753.5    0.00 
  50   21:20   0.00   15.0    68   13.8    59    16.6   753.5    0.00 
  50   21:30   0.00   14.8    68   14.1    77    17.4   753.5    0.00 
  50   21:40   0.00   14.4    68   14.6    66    17.1   753.5    0.00 
  50   21:50   0.00   14.3    69   15.2    56    18.3   753.5    0.00 
  50   22:00   0.00   14.5    68   16.6    55    19.1   753.4    0.00 
  50   22:10   0.00   14.8    67   15.5    67    18.9   753.3    0.00 
  50   22:20   0.00   15.0    67   14.6    68    18.7   753.2    0.00 
  50   22:30   0.00   15.0    66   14.1    72    18.5   753.0    0.00 
  50   22:40   0.00   14.7    67   15.8    69    20.4   753.0    0.00 
  50   22:50   0.00   14.6    67   14.9    71    19.7   753.0    0.00 
  50   23:00   0.00   14.6    67   17.1    66    20.8   752.9    0.00 
  50   23:10   0.00   14.5    67   17.8    64    21.3   753.1    0.00 
  50   23:20   0.00   14.8    66   16.3    69    20.3   752.6    0.00 
  50   23:30   0.00   14.8    65   14.4    73    18.1   752.5    0.00 
  50   23:40   0.00   14.9    64   15.9    76    20.9   752.6    0.00 
  50   23:50   0.00   14.8    64   17.6    69    21.4   752.5    0.00 
  51    0:00   0.00   14.5    65   19.7    51    22.1   752.5    0.00 
  51    0:10   0.00   14.5    65   19.1    58    23.1   752.4    0.00 
  51    0:20   0.00   14.7    65   18.7    61    21.2   752.5    0.00 
  51    0:30   0.00   14.9    64   16.5    65    22.3   752.4    0.00 
  51    0:40   0.00   15.2    64   16.7    66    22.5   752.3    0.00 
  51    0:50   0.00   15.3    65   16.2    69    22.7   752.3    0.00 
  51    1:00   0.00   15.2    67   18.9    56    23.8   752.2    0.00 
  51    1:10   0.00   14.9    69   17.8    55    22.5   752.0    0.00 
  51    1:20   0.00   14.8    70   19.1    54    22.1   752.0    0.00 
  51    1:30   0.00   15.0    70   19.5    55    23.7   752.0    0.00 
  51    1:40   0.00   14.8    70   19.7    45    22.6   751.9    0.00 
  51    1:50   0.00   14.8    71   19.1    54    22.6   752.0    0.00 
  51    2:00   0.00   14.8    71   18.2    48    21.9   751.7    0.00 
  51    2:10   0.00   15.0    71   18.3    52    23.1   751.6    0.00 
  51    2:20   0.00   15.1    71   18.4    46    21.1   751.5    0.00 
  51    2:30   0.00   15.1    71   17.3    44    19.4   751.3    0.00 
  51    2:40   0.00   15.2    70   17.2    48    20.0   751.1    0.00 
  51    2:50   0.00   15.1    71   17.4    43    20.2   751.1    0.00 
  51    3:00   0.00   14.7    72   17.5    44    19.6   751.0    0.00 
  51    3:10   0.00   14.5    72   15.4    40    20.0   750.8    0.00 
  51    3:20   0.00   14.6    72   17.0    38    20.2   750.7    0.00 
  51    3:30   0.00   14.4    72   15.8    33    22.1   750.6    0.00 
  51    3:40   0.00   14.6    72   18.2    45    23.7   750.6    0.00 
  51    3:50   0.00   14.7    71   16.2    44    23.4   750.6    0.00 
  51    4:00   0.00   14.7    70   13.4    35    18.7   750.6    0.00 
  51    4:10   0.00   14.9    70   13.0    26    17.8   750.4    0.00 
  51    4:20   0.00   14.8    69   12.8    23    15.8   750.3    0.00 
  51    4:30   0.00   14.7    69   13.1    18    17.6   750.3    0.00 
  51    4:40   0.00   14.6    70   12.8     9    17.8   750.3    0.00 
  51    4:50   0.00   14.5    69   14.9    18    20.5   750.1    0.00 
  51    5:00   0.00   15.1    67   16.2    23    22.4   750.0    0.00 
  51    5:10   0.00   15.2    67   18.2    25    21.4   749.9    0.00 
  51    5:20   0.00   15.3    66   17.3    26    21.0   749.8    0.00 
  51    5:30   0.00   15.3    65   15.3    21    19.6   749.8    0.00 
  51    5:40   0.00   15.1    66   15.9     5    18.5   749.8    0.00 
  51    5:50   0.00   15.3    64   17.1     6    20.1   749.5    0.00 
  51    6:00   0.00   15.7    64   17.7    22    21.5   749.5    0.00 
  51    6:10   0.00   15.8    63   16.3    30    19.8   749.5    0.00 
  51    6:20   0.00   15.5    64   13.4    19    17.9   749.5    0.00 
  51    6:30   0.00   15.5    65   15.7    24    19.9   749.5    0.00 
  51    6:40   0.01   15.5    65   17.9    29    22.0   749.4    0.00 
  51    6:50   0.02   15.7    64   15.4    33    22.2   749.4    0.00 
  51    7:00   0.02   15.7    64   13.9    26    19.6   749.4    0.00 
  51    7:10   0.03   15.9    64   14.6    26    20.8   749.5    0.00 
  51    7:20   0.05   16.2    62   14.7    10    20.4   749.5    0.00 

Return to Tikaboo Peak graphs page.


Western Regional Climate Center,wrcc@dri.edu